This is the latest recevied weather packets stored in our database for station/object EA7AIS-10. If no packets are shown the sender has not sent any weather packets the latest 10 day(s).
| Time | Temp. | Humidity | Pressure | Rain* | Wind** | Luminosity | Snow |
|---|---|---|---|---|---|---|---|
| 1777582863 | 18.89° C | 61% | 1014.8 hPa | - | - | - | - |
| 1777581963 | 19.44° C | 60% | 1014.6 hPa | - | - | - | - |
| 1777581063 | 20° C | 60% | 1014.3 hPa | - | - | - | - |
| 1777580163 | 20° C | 59% | 1014 hPa | - | - | - | - |
| 1777578363 | 20.56° C | 58% | 1013.4 hPa | - | - | - | - |
| 1777577463 | 20.56° C | 57% | 1013.1 hPa | - | - | - | - |
| 1777576563 | 21.11° C | 55% | 1013.1 hPa | - | - | - | - |
| 1777575662 | 21.11° C | 55% | 1013 hPa | - | - | - | - |
| 1777574762 | 21.67° C | 53% | 1012.8 hPa | - | - | - | - |
| 1777572963 | 22.78° C | 51% | 1012.6 hPa | - | - | - | - |
| 1777572062 | 22.78° C | 51% | 1012.7 hPa | - | - | - | - |
| 1777571162 | 23.33° C | 50% | 1012.6 hPa | - | - | - | - |
| 1777570262 | 23.33° C | 48% | 1012.6 hPa | - | - | - | - |
| 1777569362 | 24.44° C | 46% | 1012.8 hPa | - | - | - | - |
| 1777568462 | 25° C | 45% | 1012.6 hPa | - | - | - | - |
| 1777567562 | 25° C | 46% | 1012.6 hPa | - | - | - | - |
| 1777566662 | 25° C | 44% | 1012.6 hPa | - | - | - | - |
| 1777565762 | 25.56° C | 44% | 1012.6 hPa | - | - | - | - |
| 1777564861 | 25.56° C | 43% | 1012.6 hPa | - | - | - | - |
| 1777563061 | 25.56° C | 43% | 1012.7 hPa | - | - | - | - |
| 1777562162 | 26.11° C | 43% | 1012.7 hPa | - | - | - | - |
| 1777560361 | 26.11° C | 44% | 1012.8 hPa | - | - | - | - |
| 1777559461 | 26.11° C | 42% | 1012.9 hPa | - | - | - | - |
| 1777558561 | 25.56° C | 45% | 1013 hPa | - | - | - | - |
| 1777557661 | 25.56° C | 47% | 1013.1 hPa | - | - | - | - |
* Rain since midnight (hover to see other rain measurements)
** Current wind speed in m/s (hover to see current wind gust speed)